Time;durP1;ratioP1;P1;durP2;ratioP2;P2;SDS_P1;SDS_P2;PMS_P1;PMS_P2;Temp;Humidity;BMP_temperature;BMP_pressure;BME280_temperature;BME280_humidity;BME280_pressure;Samples;Min_cycle;Max_cycle;Signal;HPM_P1;HPM_P2
2023/10/01 00:00:43;;;;;;;12.10;9.18;;;;;;;14.30;100.00;102424.72;6281148;22;20066;-85
2023/10/01 00:03:10;;;;;;;12.82;9.18;;;;;;;14.29;100.00;102420.53;6280485;22;20469;-85
2023/10/01 00:05:39;;;;;;;21.20;9.70;;;;;;;14.28;100.00;102408.31;6278835;22;20057;-84
2023/10/01 00:08:08;;;;;;;14.30;10.20;;;;;;;14.27;100.00;102411.41;6280865;22;20454;-85
2023/10/01 00:10:35;;;;;;;14.10;9.95;;;;;;;14.25;100.00;102409.16;6280383;22;20035;-84
2023/10/01 00:13:01;;;;;;;13.52;10.25;;;;;;;14.25;100.00;102411.84;6281507;22;20477;-86
2023/10/01 00:15:29;;;;;;;14.43;10.65;;;;;;;14.25;100.00;102411.84;6280413;22;20569;-86
2023/10/01 00:17:56;;;;;;;14.57;10.80;;;;;;;14.25;100.00;102419.88;6282237;22;20023;-86
2023/10/01 00:20:24;;;;;;;18.17;10.63;;;;;;;14.25;100.00;102419.13;6279957;22;20527;-86
2023/10/01 00:22:54;;;;;;;15.20;11.68;;;;;;;14.26;100.00;102421.38;6284044;22;20084;-86
2023/10/01 00:25:22;;;;;;;16.40;10.63;;;;;;;14.28;100.00;102410.22;6285059;22;20020;-86
2023/10/01 00:27:50;;;;;;;14.65;11.05;;;;;;;14.27;100.00;102412.16;6282523;22;20075;-86
2023/10/01 00:30:17;;;;;;;18.48;11.48;;;;;;;14.26;100.00;102402.63;6278623;22;20417;-86
2023/10/01 00:32:44;;;;;;;15.23;10.48;;;;;;;14.24;100.00;102393.50;6278864;22;20074;-86
2023/10/01 00:35:11;;;;;;;15.27;10.80;;;;;;;14.22;100.00;102388.56;6279507;22;20390;-87
2023/10/01 00:37:38;;;;;;;15.80;11.32;;;;;;;14.18;100.00;102385.25;6281035;22;20476;-87
2023/10/01 00:40:08;;;;;;;15.98;11.20;;;;;;;14.16;100.00;102381.47;6280169;22;20017;-86
2023/10/01 00:42:36;;;;;;;16.23;11.23;;;;;;;14.12;100.00;102384.25;6278597;22;20020;-86
2023/10/01 00:45:04;;;;;;;16.35;11.13;;;;;;;14.12;100.00;102386.94;6280746;22;20768;-86
2023/10/01 00:47:32;;;;;;;16.77;10.82;;;;;;;14.10;100.00;102383.16;6279753;22;20442;-86
2023/10/01 00:50:00;;;;;;;19.15;10.88;;;;;;;14.10;100.00;102375.88;6281000;22;20022;-87
2023/10/01 00:52:28;;;;;;;13.43;10.07;;;;;;;14.09;100.00;102381.66;6280075;22;20458;-86
2023/10/01 00:54:55;;;;;;;15.25;10.20;;;;;;;14.08;100.00;102380.16;6280191;22;20284;-86
2023/10/01 00:57:22;;;;;;;15.75;9.82;;;;;;;14.05;100.00;102376.41;6280156;22;20016;-86
2023/10/01 00:59:50;;;;;;;15.77;10.35;;;;;;;14.04;100.00;102380.25;6280766;22;20022;-86
2023/10/01 01:02:17;;;;;;;12.85;10.52;;;;;;;14.04;100.00;102374.91;6278913;22;20040;-85
2023/10/01 01:05:05;;;;;;;13.00;9.60;;;;;;;14.02;100.00;102380.69;6280881;22;20027;-86
2023/10/01 01:07:36;;;;;;;18.10;9.80;;;;;;;14.03;100.00;102381.44;6280638;22;20492;-86
2023/10/01 01:10:04;;;;;;;16.17;9.60;;;;;;;14.02;100.00;102382.59;6280789;22;20459;-86
2023/10/01 01:12:32;;;;;;;11.45;9.48;;;;;;;14.03;100.00;102374.16;6283428;22;21045;-85
2023/10/01 01:14:58;;;;;;;10.80;8.73;;;;;;;14.03;100.00;102371.47;6287530;22;20008;-87
2023/10/01 01:17:25;;;;;;;13.63;9.18;;;;;;;14.06;100.00;102374.47;6286615;22;20024;-86
2023/10/01 01:19:55;;;;;;;13.52;8.55;;;;;;;14.06;100.00;102363.78;6282021;22;20353;-87
2023/10/01 01:22:28;;;;;;;12.15;8.57;;;;;;;14.06;100.00;102364.53;6280812;22;20016;-86
2023/10/01 01:24:57;;;;;;;24.17;8.77;;;;;;;14.05;100.00;102363.00;6279809;22;20026;-87
2023/10/01 01:27:24;;;;;;;21.25;8.68;;;;;;;14.05;100.00;102357.66;6280045;22;20048;-86
2023/10/01 01:29:50;;;;;;;13.95;8.80;;;;;;;14.05;100.00;102362.25;6282391;22;20062;-86
2023/10/01 01:32:17;;;;;;;15.35;8.98;;;;;;;14.03;99.79;102352.72;6254812;22;20071;-87
2023/10/01 01:34:45;;;;;;;14.80;8.52;;;;;;;14.03;99.98;102346.63;6286996;22;20034;-86
2023/10/01 01:37:30;;;;;;;13.07;8.82;;;;;;;14.05;99.59;102357.66;6280220;22;20021;-86
2023/10/01 01:39:57;;;;;;;10.82;7.63;;;;;;;14.05;99.20;102363.00;6280554;22;20095;-86
2023/10/01 01:42:25;;;;;;;13.15;8.43;;;;;;;14.07;99.29;102349.97;6281341;22;20042;-86
2023/10/01 01:47:38;;;;;;;10.18;7.22;;;;;;;14.09;98.74;102350.28;6281507;22;20009;-87
2023/10/01 01:50:19;;;;;;;11.40;7.70;;;;;;;14.09;98.15;102339.56;6280050;22;20012;-86
2023/10/01 01:52:47;;;;;;;11.07;7.97;;;;;;;14.07;97.98;102341.91;6279633;22;20070;-86
2023/10/01 01:55:25;;;;;;;15.10;7.45;;;;;;;14.08;97.07;102340.00;6279453;22;20095;-85
2023/10/01 01:58:08;;;;;;;13.23;7.30;;;;;;;14.10;97.93;102337.66;6280203;22;20047;-86
2023/10/01 02:03:22;;;;;;;12.35;6.85;;;;;;;14.11;97.46;102341.81;6279310;22;20350;-86
2023/10/01 02:05:49;;;;;;;14.20;6.88;;;;;;;14.11;96.97;102345.25;6279813;22;20418;-85
2023/10/01 02:08:24;;;;;;;11.10;6.80;;;;;;;14.11;97.03;102342.59;6280704;22;20023;-86
2023/10/01 02:10:53;;;;;;;15.23;7.32;;;;;;;14.12;96.02;102340.66;6280851;22;20012;-86
2023/10/01 02:13:24;;;;;;;11.45;6.45;;;;;;;14.15;96.51;102343.22;6254289;22;20016;-86
2023/10/01 02:15:52;;;;;;;12.07;6.13;;;;;;;14.15;96.54;102337.88;6255237;22;20086;-86
2023/10/01 02:18:20;;;;;;;12.80;5.80;;;;;;;14.16;95.88;102335.94;6253663;22;20246;-85
2023/10/01 02:20:56;;;;;;;14.30;6.18;;;;;;;14.15;95.29;102331.78;6279865;22;20034;-86
2023/10/01 02:23:32;;;;;;;10.80;6.45;;;;;;;14.14;94.44;102331.03;6280649;22;20506;-86
2023/10/01 02:26:00;;;;;;;10.25;5.60;;;;;;;14.16;94.65;102330.59;6280054;22;20052;-86
2023/10/01 02:28:32;;;;;;;13.13;5.75;;;;;;;14.17;94.07;102324.06;6280768;22;20016;-86
2023/10/01 02:31:06;;;;;;;9.00;5.75;;;;;;;14.16;94.62;102320.63;6279902;22;20027;-85
2023/10/01 02:36:22;;;;;;;9.18;5.97;;;;;;;14.16;94.03;102314.53;6278986;22;20512;-86
2023/10/01 02:38:53;;;;;;;9.77;5.65;;;;;;;14.17;94.09;102318.72;6305621;22;20028;-85
2023/10/01 02:41:25;;;;;;;14.75;6.00;;;;;;;14.16;94.10;102326.00;6280482;22;20016;-86
2023/10/01 02:43:55;;;;;;;10.88;5.90;;;;;;;14.17;94.71;102327.50;6281499;22;20074;-85
2023/10/01 02:46:26;;;;;;;13.60;5.97;;;;;;;14.15;93.52;102324.50;6279175;22;20023;-86
2023/10/01 02:48:59;;;;;;;;;;;;;;;14.16;93.73;102322.56;6282039;22;20043;-87
2023/10/01 02:51:37;;;;;;;11.38;5.75;;;;;;;14.13;92.97;102324.16;6278927;22;19920;-85
2023/10/01 02:54:09;;;;;;;10.95;5.63;;;;;;;14.14;93.75;102317.63;6281612;22;20016;-86
2023/10/01 02:56:38;;;;;;;7.72;5.28;;;;;;;14.14;93.56;102324.91;6281063;22;20497;-86
2023/10/01 02:59:13;;;;;;;12.60;6.25;;;;;;;14.15;94.14;102315.69;6305137;22;20461;-86
2023/10/01 03:01:46;;;;;;;11.45;5.85;;;;;;;14.16;93.43;102320.63;6279668;22;20027;-85
2023/10/01 03:04:16;;;;;;;13.20;5.55;;;;;;;14.16;93.09;102314.53;6281005;22;20012;-85
2023/10/01 03:06:55;;;;;;;11.50;5.97;;;;;;;14.15;92.94;102313.03;6280355;22;20070;-86
2023/10/01 03:09:31;;;;;;;10.32;5.93;;;;;;;14.16;93.04;102317.97;6280756;22;20016;-86
2023/10/01 03:15:00;;;;;;;10.27;6.05;;;;;;;14.17;93.01;102308.75;6282517;22;20045;-86
2023/10/01 03:17:33;;;;;;;8.82;5.22;;;;;;;14.16;93.21;102301.13;6284306;22;20016;-86
2023/10/01 03:20:16;;;;;;;7.55;5.78;;;;;;;14.15;93.56;102296.97;6287066;22;20027;-86
2023/10/01 03:22:51;;;;;;;11.13;6.03;;;;;;;14.16;93.29;102301.13;6280016;22;20023;-86
2023/10/01 03:25:28;;;;;;;9.38;4.82;;;;;;;14.12;92.78;102295.88;6280809;22;20008;-86
2023/10/01 03:27:59;;;;;;;11.20;5.75;;;;;;;14.13;93.21;102300.06;6281402;22;20016;-86
2023/10/01 03:30:32;;;;;;;13.73;5.07;;;;;;;14.13;92.83;102300.06;6280556;22;20365;-85
2023/10/01 03:33:01;;;;;;;15.05;5.80;;;;;;;14.13;93.24;102297.38;6280095;22;20405;-86
2023/10/01 03:35:28;;;;;;;12.50;5.70;;;;;;;14.14;92.08;102295.47;6279882;22;20015;-86
2023/10/01 03:38:10;;;;;;;13.65;5.40;;;;;;;14.13;92.50;102294.69;6280934;22;20050;-86
2023/10/01 03:40:57;;;;;;;;;;;;;;;14.15;92.43;102292.34;6281381;22;20486;-86
2023/10/01 03:43:35;;;;;;;12.50;4.93;;;;;;;14.16;92.84;102291.19;6280678;22;20365;-86
2023/10/01 03:46:07;;;;;;;11.98;5.80;;;;;;;14.15;92.31;102294.28;6281333;22;20222;-85
2023/10/01 03:51:28;;;;;;;10.02;5.22;;;;;;;14.15;92.79;102289.69;6280420;22;20027;-86
2023/10/01 03:53:59;;;;;;;11.40;5.78;;;;;;;14.15;92.48;102292.34;6281374;22;20036;-85
2023/10/01 03:56:30;;;;;;;10.50;5.57;;;;;;;14.13;92.44;102294.69;6278735;22;20019;-86
2023/10/01 03:58:57;;;;;;;11.85;5.18;;;;;;;14.12;92.90;102290.53;6281057;22;20430;-87
2023/10/01 04:01:58;;;;;;;8.68;5.00;;;;;;;14.12;92.50;102293.19;6280508;22;20476;-86
2023/10/01 04:04:15;;;;;;;11.57;4.97;;;;;;;14.10;92.78;102290.19;6279951;22;20393;-86
2023/10/01 04:06:44;;;;;;;6.38;5.10;;;;;;;14.11;92.54;102290.94;6278885;22;20031;-87
2023/10/01 04:09:10;;;;;;;10.90;5.20;;;;;;;14.11;92.66;102293.63;6280810;22;20071;-87
2023/10/01 04:11:49;;;;;;;13.43;5.40;;;;;;;14.13;93.02;102291.28;6278999;22;20525;-87
2023/10/01 04:14:17;;;;;;;10.55;5.43;;;;;;;14.12;92.59;102289.78;6279326;22;20020;-86
2023/10/01 04:16:48;;;;;;;13.35;5.78;;;;;;;14.12;93.16;102290.53;6281142;22;20023;-87
2023/10/01 04:19:18;;;;;;;10.63;5.53;;;;;;;14.13;93.17;102285.91;6278904;22;20020;-87
2023/10/01 04:21:50;;;;;;;10.68;4.88;;;;;;;14.13;93.02;102289.34;6280860;22;20020;-86
2023/10/01 04:24:19;;;;;;;;;;;;;;;14.15;92.86;102288.91;6281289;22;20070;-86
2023/10/01 04:26:46;;;;;;;8.60;4.45;;;;;;;14.15;93.42;102286.25;6281041;22;20336;-86
2023/10/01 04:29:16;;;;;;;8.43;4.72;;;;;;;14.15;93.52;102287.00;6280618;22;20016;-86
2023/10/01 04:31:52;;;;;;;9.57;5.15;;;;;;;14.14;93.25;102284.75;6280250;22;20442;-85
2023/10/01 04:34:20;;;;;;;7.93;4.68;;;;;;;14.12;93.02;102282.50;6280261;22;20016;-85
2023/10/01 04:36:53;;;;;;;9.50;4.88;;;;;;;14.11;93.25;102275.63;6280795;22;20012;-86
2023/10/01 04:39:20;;;;;;;8.93;4.97;;;;;;;14.09;93.42;102280.66;6279974;22;20012;-86
2023/10/01 04:41:47;;;;;;;6.68;5.05;;;;;;;14.10;93.82;102278.72;6280574;22;20079;-86
2023/10/01 04:44:19;;;;;;;11.98;5.22;;;;;;;14.08;93.79;102287.19;6280960;22;20402;-86
2023/10/01 04:46:46;;;;;;;11.15;5.47;;;;;;;14.09;94.25;102293.31;6280487;22;20016;-86
2023/10/01 04:49:31;;;;;;;13.52;5.53;;;;;;;14.08;94.04;102292.56;6280419;22;20012;-86
2023/10/01 04:52:10;;;;;;;9.30;5.20;;;;;;;14.09;93.85;102287.94;6281974;22;20459;-86
2023/10/01 04:54:37;;;;;;;7.93;4.32;;;;;;;14.09;93.95;102288.69;6281871;22;20455;-86
2023/10/01 04:57:04;;;;;;;8.30;5.18;;;;;;;14.09;93.71;102285.28;6282191;22;20508;-86
2023/10/01 04:59:31;;;;;;;9.50;5.20;;;;;;;14.08;93.93;102283.75;6281368;22;20012;-86
2023/10/01 05:02:15;;;;;;;12.77;5.57;;;;;;;14.09;93.92;102288.69;6281360;22;20016;-86
2023/10/01 05:04:44;;;;;;;10.02;5.07;;;;;;;14.11;94.29;102286.34;6281966;22;20453;-86
2023/10/01 05:07:14;;;;;;;10.82;4.95;;;;;;;14.11;94.16;102286.34;6279634;22;20357;-86
2023/10/01 05:09:43;;;;;;;10.95;4.60;;;;;;;14.13;94.15;102280.56;6281886;22;20285;-86
2023/10/01 05:12:11;;;;;;;11.05;5.10;;;;;;;14.12;94.16;102287.09;6282107;22;20024;-86
2023/10/01 05:14:59;;;;;;;10.20;5.78;;;;;;;14.12;94.00;102295.88;6281886;22;20074;-86
2023/10/01 05:17:30;;;;;;;12.57;5.03;;;;;;;14.13;93.93;102294.69;6283828;22;20046;-88
2023/10/01 05:19:58;;;;;;;7.68;5.13;;;;;;;14.15;93.49;102300.38;6285942;22;20012;-86
2023/10/01 05:22:26;;;;;;;15.63;5.65;;;;;;;14.16;93.82;102293.84;6280838;22;20814;-86
2023/10/01 05:24:53;;;;;;;9.50;5.72;;;;;;;14.16;93.76;102293.84;6280446;22;20100;-86
2023/10/01 05:27:19;;;;;;;10.88;5.38;;;;;;;14.16;93.79;102287.75;6279180;22;20012;-85
2023/10/01 05:29:46;;;;;;;12.27;5.82;;;;;;;14.17;93.76;102290.00;6281105;22;20074;-87
2023/10/01 05:32:13;;;;;;;9.88;5.63;;;;;;;14.17;93.92;102290.00;6281295;22;20477;-86
2023/10/01 05:34:46;;;;;;;11.50;5.90;;;;;;;14.17;93.85;102281.22;6281024;22;20017;-82
2023/10/01 05:37:24;;;;;;;12.20;5.88;;;;;;;14.18;94.08;102288.81;6279267;22;20020;-87
2023/10/01 05:39:58;;;;;;;10.48;5.35;;;;;;;14.18;94.31;102288.81;6281669;22;20048;-86
2023/10/01 05:42:40;;;;;;;9.27;5.80;;;;;;;14.18;93.92;102299.53;6281567;22;20271;-93
2023/10/01 05:45:18;;;;;;;19.98;5.63;;;;;;;14.19;94.26;102298.34;6281824;22;20087;-93
2023/10/01 05:47:51;;;;;;;10.32;5.32;;;;;;;14.20;94.01;102305.22;6282259;22;20430;-87
2023/10/01 05:50:19;;;;;;;9.52;5.28;;;;;;;14.22;94.17;102302.88;6281477;22;20063;-85
2023/10/01 05:52:46;;;;;;;13.50;5.07;;;;;;;14.24;94.82;102303.19;6281781;22;20055;-84
2023/10/01 05:55:15;;;;;;;7.40;4.95;;;;;;;14.24;94.40;102307.78;6279107;22;20012;-80
2023/10/01 05:57:43;;;;;;;15.23;5.30;;;;;;;14.25;94.24;102302.00;6280849;22;20023;-82
2023/10/01 06:00:18;;;;;;;11.98;4.97;;;;;;;14.27;94.53;102307.69;6279766;22;20442;-80
2023/10/01 06:03:00;;;;;;;8.68;5.28;;;;;;;14.30;94.42;102308.78;6281744;22;20537;-83
2023/10/01 06:05:38;;;;;;;9.48;5.18;;;;;;;14.31;94.28;102302.25;6280358;22;20020;-83
2023/10/01 06:08:15;;;;;;;13.70;5.78;;;;;;;14.32;94.17;102309.09;6280982;22;20473;-85
2023/10/01 06:11:06;;;;;;;13.63;5.43;;;;;;;14.34;93.98;102307.50;6281234;22;20018;-85
2023/10/01 06:13:38;;;;;;;13.13;5.33;;;;;;;14.38;94.10;102317.34;6281090;22;20047;-85
2023/10/01 06:16:16;;;;;;;10.35;5.30;;;;;;;14.39;94.34;102308.16;6279544;22;20488;-85
2023/10/01 06:18:50;;;;;;;13.27;5.50;;;;;;;14.39;94.00;102306.22;6279669;22;20020;-81
2023/10/01 06:21:18;;;;;;;14.20;5.22;;;;;;;14.42;93.85;102315.31;6281519;22;20016;-89
2023/10/01 06:23:51;;;;;;;8.77;5.05;;;;;;;14.44;94.14;102315.66;6282517;22;20027;-91
2023/10/01 06:26:29;;;;;;;11.05;5.40;;;;;;;14.46;93.90;102318.66;6282997;22;20086;-90
2023/10/01 06:28:57;;;;;;;13.45;5.95;;;;;;;14.47;94.27;102318.22;6282593;22;20125;-91
2023/10/01 06:31:24;;;;;;;14.20;6.68;;;;;;;14.46;93.88;102319.41;6281841;22;20048;-86
2023/10/01 06:33:53;;;;;;;9.07;5.78;;;;;;;14.46;93.68;102314.06;6280323;22;20020;-88
2023/10/01 06:36:21;;;;;;;11.65;5.88;;;;;;;14.49;93.88;102310.50;6283544;22;20022;-93
2023/10/01 06:38:53;;;;;;;16.30;5.65;;;;;;;14.48;93.53;102317.06;6286303;22;20028;-89
2023/10/01 06:41:25;;;;;;;16.98;5.95;;;;;;;14.62;93.52;102322.00;6282810;22;20536;-90
2023/10/01 06:43:56;;;;;;;13.82;5.90;;;;;;;15.21;91.56;102315.16;6282434;22;20023;-89
2023/10/01 06:46:28;;;;;;;10.85;5.35;;;;;;;15.32;89.93;102320.16;6283795;22;20482;-90
2023/10/01 06:48:58;;;;;;;10.20;5.95;;;;;;;15.25;90.48;102318.47;6282841;22;20012;-93
2023/10/01 06:51:26;;;;;;;13.75;5.95;;;;;;;15.22;89.83;102321.25;6283412;22;20079;-92
2023/10/01 06:54:05;;;;;;;14.13;5.55;;;;;;;15.24;90.24;102319.66;6283922;22;20050;-93
2023/10/01 06:56:35;;;;;;;13.40;5.72;;;;;;;15.27;89.98;102308.06;6283246;22;20019;-91
2023/10/01 07:01:35;;;;;;;7.47;5.53;;;;;;;15.40;89.58;102320.69;6289945;22;20067;-89
2023/10/01 07:04:05;;;;;;;;;;;;;;;15.50;89.98;102323.00;6294379;22;20370;-91
2023/10/01 07:06:36;;;;;;;11.90;5.78;;;;;;;15.64;89.20;102324.47;6284414;22;19919;-91
2023/10/01 07:09:03;;;;;;;8.98;6.05;;;;;;;15.78;88.29;102317.88;6285650;22;20008;-95
2023/10/01 07:11:30;;;;;;;14.57;6.07;;;;;;;15.87;87.84;102316.00;6284970;22;20799;-94
2023/10/01 07:13:58;;;;;;;13.63;6.28;;;;;;;15.81;87.91;102317.75;6285917;22;20036;-91
2023/10/01 07:16:39;;;;;;;12.15;7.20;;;;;;;15.80;87.95;102318.19;6289175;22;20036;-93
2023/10/01 07:19:11;;;;;;;11.10;6.10;;;;;;;15.85;86.75;102325.69;6296241;22;20013;-86
2023/10/01 07:21:41;;;;;;;13.68;6.50;;;;;;;15.97;87.25;102317.56;6291689;22;20016;-91
2023/10/01 07:24:11;;;;;;;11.80;6.40;;;;;;;16.10;87.46;102324.78;6285185;22;20498;-88
2023/10/01 07:26:40;;;;;;;9.07;6.28;;;;;;;16.11;85.64;102312.84;6279721;22;20020;-88
2023/10/01 07:29:06;;;;;;;14.10;6.90;;;;;;;16.19;85.63;102317.53;6281969;22;20019;-87
2023/10/01 07:31:35;;;;;;;14.90;6.57;;;;;;;16.23;84.40;102320.84;6282682;22;20091;-91
2023/10/01 07:34:12;;;;;;;9.30;6.20;;;;;;;16.31;85.13;102315.94;6280499;22;20062;-89
2023/10/01 07:36:43;;;;;;;8.90;6.00;;;;;;;16.42;85.08;102324.34;6280343;22;20044;-89
2023/10/01 07:39:13;;;;;;;10.65;6.72;;;;;;;16.53;84.69;102334.69;6279672;22;20025;-90
2023/10/01 07:41:39;;;;;;;13.40;6.70;;;;;;;16.62;84.89;102332.78;6279551;22;20091;-90
2023/10/01 07:44:09;;;;;;;10.57;6.43;;;;;;;16.69;84.10;102342.56;6281749;22;20016;-89
2023/10/01 07:46:38;;;;;;;11.38;6.72;;;;;;;16.77;83.87;102340.34;6280983;22;20016;-86
2023/10/01 07:49:09;;;;;;;9.73;6.03;;;;;;;16.87;82.71;102336.47;6281404;22;20012;-88
2023/10/01 07:51:38;;;;;;;13.65;6.80;;;;;;;16.98;82.80;102334.13;6281871;22;20012;-89
2023/10/01 07:54:12;;;;;;;13.07;7.20;;;;;;;17.06;82.14;102342.66;6281728;22;20522;-89
2023/10/01 07:56:39;;;;;;;15.27;7.03;;;;;;;17.16;81.97;102341.47;6277336;22;20409;-88
2023/10/01 07:59:17;;;;;;;12.77;6.35;;;;;;;17.24;81.86;102331.91;6279749;22;20020;-89
2023/10/01 08:01:45;;;;;;;13.15;6.68;;;;;;;17.34;81.65;102328.03;6282439;22;20020;-90
2023/10/01 08:07:15;;;;;;;14.68;6.60;;;;;;;17.50;80.51;102333.13;6267409;22;20425;-88
2023/10/01 08:09:46;;;;;;;15.30;6.97;;;;;;;17.57;79.46;102332.81;6281252;22;20017;-89
2023/10/01 08:12:13;;;;;;;14.80;7.93;;;;;;;17.57;79.23;102330.13;6279555;22;20024;-89
2023/10/01 08:14:40;;;;;;;14.05;7.22;;;;;;;17.63;80.08;102328.31;6281708;22;20100;-89
2023/10/01 08:17:08;;;;;;;10.50;6.88;;;;;;;17.75;79.26;102325.94;6281986;22;20396;-88
2023/10/01 08:20:08;;;;;;;11.55;6.88;;;;;;;17.88;79.62;102331.91;6282709;22;20016;-89
2023/10/01 08:22:43;;;;;;;14.75;6.88;;;;;;;17.96;78.65;102339.25;6275915;22;20031;-88
2023/10/01 08:25:12;;;;;;;18.38;6.72;;;;;;;18.10;77.82;102347.88;6279894;22;20016;-89
2023/10/01 08:28:08;;;;;;;11.70;6.63;;;;;;;18.26;79.07;102344.84;6281017;22;20504;-87
2023/10/01 08:30:38;;;;;;;11.95;6.97;;;;;;;18.38;77.92;102340.47;6281106;22;20020;-89
2023/10/01 08:33:19;;;;;;;14.40;7.22;;;;;;;18.44;76.72;102339.38;6282508;22;20046;-87
2023/10/01 08:36:01;;;;;;;13.10;6.35;;;;;;;18.43;76.40;102337.88;6282534;22;20020;-88
2023/10/01 08:38:34;;;;;;;12.35;7.35;;;;;;;18.47;77.29;102335.03;6281192;22;20524;-89
2023/10/01 08:41:05;;;;;;;18.70;7.25;;;;;;;18.61;76.71;102337.09;6279686;22;20095;-87
2023/10/01 08:43:36;;;;;;;13.10;8.30;;;;;;;18.74;75.64;102345.72;6282200;22;20016;-86
2023/10/01 08:46:16;;;;;;;16.08;7.47;;;;;;;18.82;76.25;102340.72;6281136;22;20031;-86
2023/10/01 08:48:44;;;;;;;17.45;7.75;;;;;;;18.97;75.16;102349.63;6283029;22;20070;-89
2023/10/01 08:51:12;;;;;;;11.57;6.95;;;;;;;19.22;75.92;102346.47;6281350;22;20019;-91
2023/10/01 08:53:42;;;;;;;17.38;7.07;;;;;;;19.38;73.97;102342.59;6281881;22;20012;-88
2023/10/01 08:56:17;;;;;;;13.40;6.82;;;;;;;19.54;74.71;102338.75;6285229;22;20012;-91
2023/10/01 08:58:50;;;;;;;12.18;7.32;;;;;;;19.74;73.80;102346.97;6285137;22;20012;-89
2023/10/01 09:01:20;;;;;;;12.73;7.13;;;;;;;19.87;72.41;102346.72;6283955;22;20008;-89
2023/10/01 09:03:47;;;;;;;11.35;6.97;;;;;;;20.06;73.36;102350.69;6284829;22;20016;-93
2023/10/01 09:06:27;;;;;;;16.67;6.90;;;;;;;20.30;73.25;102339.78;6283361;22;20027;-89
2023/10/01 09:09:19;;;;;;;12.32;6.47;;;;;;;20.30;71.51;102345.19;6283694;22;20039;-89
2023/10/01 09:11:50;;;;;;;13.98;6.72;;;;;;;20.32;71.32;102345.47;6283730;22;20005;-88
2023/10/01 09:14:25;;;;;;;12.60;6.97;;;;;;;20.46;70.27;102344.72;6284443;22;20852;-92
2023/10/01 09:16:57;;;;;;;11.55;7.25;;;;;;;20.52;69.87;102340.13;6282982;22;20016;-85
2023/10/01 09:19:35;;;;;;;14.63;7.47;;;;;;;20.70;70.08;102341.13;6282352;22;20023;-92
2023/10/01 09:22:08;;;;;;;13.63;6.80;;;;;;;20.87;70.13;102333.94;6280846;22;20016;-87
2023/10/01 09:24:39;;;;;;;14.00;7.18;;;;;;;20.86;69.50;102335.16;6286855;22;20832;-87
2023/10/01 09:27:21;;;;;;;12.88;6.63;;;;;;;20.93;69.63;102338.22;6291775;22;20713;-86
2023/10/01 09:29:57;;;;;;;13.90;6.75;;;;;;;21.16;70.04;102333.81;6280245;22;20012;-87
2023/10/01 09:32:50;;;;;;;15.10;7.18;;;;;;;21.05;68.80;102339.09;6278916;22;20016;-83
2023/10/01 09:35:38;;;;;;;13.77;7.05;;;;;;;21.17;68.51;102343.44;6278377;22;20012;-84
2023/10/01 09:38:13;;;;;;;15.20;6.97;;;;;;;21.24;68.03;102329.50;6281238;22;20024;-84
2023/10/01 09:40:47;;;;;;;13.10;7.55;;;;;;;21.45;67.16;102332.19;6281295;22;20016;-83
2023/10/01 09:43:18;;;;;;;12.75;6.97;;;;;;;21.39;66.74;102337.53;6281425;22;20425;-85
2023/10/01 09:45:47;;;;;;;15.63;7.00;;;;;;;21.25;67.91;102341.81;6282625;22;20074;-91
2023/10/01 09:48:30;;;;;;;13.93;7.50;;;;;;;21.21;69.68;102346.69;6281874;22;20458;-85
2023/10/01 09:51:08;;;;;;;13.50;6.78;;;;;;;21.16;68.99;102347.38;6283531;22;20533;-88
2023/10/01 09:53:54;;;;;;;8.63;6.65;;;;;;;21.23;70.70;102346.22;6286200;22;20005;-92
2023/10/01 09:56:26;;;;;;;12.23;7.00;;;;;;;21.08;69.38;102342.81;6286508;22;20021;-88
2023/10/01 09:59:03;;;;;;;14.57;7.00;;;;;;;21.07;69.62;102346.75;6291775;22;20095;-93
2023/10/01 10:01:31;;;;;;;15.52;7.00;;;;;;;21.03;69.16;102346.94;6302044;22;20013;-88
2023/10/01 10:04:01;;;;;;;13.02;7.10;;;;;;;21.06;69.41;102343.28;6288417;22;20020;-89
2023/10/01 10:06:29;;;;;;;17.58;6.57;;;;;;;21.10;69.20;102337.69;6296019;22;20016;-94
2023/10/01 10:09:03;;;;;;;12.43;7.03;;;;;;;21.06;68.72;102334.44;6292655;22;20059;-92
2023/10/01 10:11:37;;;;;;;11.07;7.03;;;;;;;21.10;69.56;102330.31;6284210;22;20016;-86
2023/10/01 10:14:25;;;;;;;13.90;7.13;;;;;;;21.08;69.75;102318.47;6281407;22;20016;-88
2023/10/01 10:16:57;;;;;;;14.52;7.55;;;;;;;21.17;69.79;102318.31;6292096;22;20058;-92
2023/10/01 10:19:31;;;;;;;17.40;6.95;;;;;;;21.27;70.86;102322.38;6290019;22;20019;-91
2023/10/01 10:24:31;;;;;;;12.98;6.75;;;;;;;21.38;68.46;102316.34;6293662;22;20032;-88
2023/10/01 10:27:15;;;;;;;12.30;6.95;;;;;;;21.43;68.42;102318.38;6288127;22;20020;-86
2023/10/01 10:29:56;;;;;;;12.30;6.65;;;;;;;21.46;68.66;102320.88;6290417;22;20074;-88
2023/10/01 10:32:26;;;;;;;10.70;7.07;;;;;;;21.49;68.64;102311.78;6288898;22;20068;-89
2023/10/01 10:35:15;;;;;;;10.50;6.38;;;;;;;21.50;68.80;102307.84;6288368;22;20023;-87
2023/10/01 10:37:48;;;;;;;12.88;7.07;;;;;;;21.40;67.55;102303.06;6291843;22;20016;-88
2023/10/01 10:43:16;;;;;;;11.90;6.30;;;;;;;21.37;68.07;102315.59;6284789;22;20015;-85
2023/10/01 10:45:57;;;;;;;11.38;7.28;;;;;;;21.43;68.40;102300.16;6282244;22;20421;-86
2023/10/01 10:48:59;;;;;;;16.95;7.07;;;;;;;21.49;68.83;102298.25;6279658;22;20099;-86
2023/10/01 10:51:43;;;;;;;14.20;6.80;;;;;;;21.50;68.86;102296.28;6285967;22;20454;-85
2023/10/01 10:54:16;;;;;;;12.07;7.57;;;;;;;21.54;68.90;102297.56;6283126;22;20020;-87
2023/10/01 10:56:44;;;;;;;13.90;7.50;;;;;;;21.52;68.74;102283.00;6291657;22;20016;-92
2023/10/01 10:59:13;;;;;;;14.27;7.88;;;;;;;21.52;68.66;102296.53;6285165;22;20859;-86
2023/10/01 11:01:51;;;;;;;13.38;7.13;;;;;;;21.57;68.71;102295.84;6282978;22;20024;-89
2023/10/01 11:04:18;;;;;;;15.38;7.30;;;;;;;21.61;68.63;102290.94;6281130;22;20338;-86
2023/10/01 11:07:01;;;;;;;13.48;7.47;;;;;;;21.63;68.40;102288.50;6284488;22;20203;-84
2023/10/01 11:09:30;;;;;;;17.88;7.63;;;;;;;21.65;68.19;102291.47;6284891;22;20012;-86
2023/10/01 11:12:05;;;;;;;19.92;7.47;;;;;;;21.67;68.96;102285.56;6284357;22;20461;-85
2023/10/01 11:14:37;;;;;;;14.38;7.20;;;;;;;21.71;68.92;102286.84;6282512;22;20469;-85
2023/10/01 11:17:07;;;;;;;14.23;7.50;;;;;;;21.72;68.86;102282.16;6282678;22;20016;-85
2023/10/01 11:19:35;;;;;;;17.17;8.38;;;;;;;21.73;67.98;102281.69;6281667;22;20016;-86
2023/10/01 11:22:05;;;;;;;17.13;7.70;;;;;;;21.73;66.21;102284.41;6282840;22;20055;-87
2023/10/01 11:24:41;;;;;;;16.55;7.60;;;;;;;21.76;66.91;102283.44;6282165;22;20080;-87
2023/10/01 11:27:24;;;;;;;12.20;7.72;;;;;;;21.79;66.65;102285.19;6281219;22;20016;-85
2023/10/01 11:30:12;;;;;;;12.13;7.22;;;;;;;21.85;68.39;102285.97;6281199;22;20450;-85
2023/10/01 11:32:58;;;;;;;15.48;7.68;;;;;;;21.93;68.17;102284.31;6282786;22;20020;-85
2023/10/01 11:35:37;;;;;;;13.57;7.10;;;;;;;21.98;68.21;102279.44;6283503;22;20008;-84
2023/10/01 11:38:18;;;;;;;17.52;8.35;;;;;;;22.00;66.62;102277.69;6282289;22;20012;-86
2023/10/01 11:43:58;;;;;;;16.90;9.00;;;;;;;22.02;66.96;102275.28;6281424;22;20020;-85
2023/10/01 11:46:35;;;;;;;13.77;8.02;;;;;;;22.04;66.44;102269.38;6280614;22;20016;-85
2023/10/01 11:49:09;;;;;;;16.33;8.75;;;;;;;22.04;66.67;102267.41;6281917;22;20028;-86
2023/10/01 11:52:01;;;;;;;16.50;7.95;;;;;;;22.08;66.66;102273.34;6281822;22;20020;-86
2023/10/01 11:54:44;;;;;;;;;;;;;;;22.15;67.30;102277.59;6281741;22;20131;-86
2023/10/01 11:57:24;;;;;;;15.98;8.48;;;;;;;22.08;65.58;102276.06;6282741;22;19946;-90
2023/10/01 11:59:56;;;;;;;16.95;8.68;;;;;;;22.01;66.33;102279.22;6281308;22;20012;-86
2023/10/01 12:02:25;;;;;;;20.92;9.02;;;;;;;22.02;66.96;102279.94;6280378;22;20016;-87
2023/10/01 12:04:57;;;;;;;16.77;8.85;;;;;;;21.96;66.75;102274.50;6281292;22;20027;-80
2023/10/01 12:07:32;;;;;;;14.82;8.35;;;;;;;21.92;66.90;102265.81;6279744;22;20480;-80
2023/10/01 12:10:04;;;;;;;16.00;8.88;;;;;;;21.97;66.29;102257.00;6280483;22;20023;-81
2023/10/01 12:12:37;;;;;;;;;;;;;;;22.06;67.67;102262.25;6280816;22;20023;-80